sensor_id;sensor_type;location;lat;lon;timestamp;P1;durP1;ratioP1;P2;durP2;ratioP2
42840;SDS011;28491;46.898;7.660;2022-12-29T00:01:49;3.88;;;1.90;;
42840;SDS011;28491;46.898;7.660;2022-12-29T00:04:14;5.63;;;3.83;;
42840;SDS011;28491;46.898;7.660;2022-12-29T00:06:41;4.60;;;2.78;;
42840;SDS011;28491;46.898;7.660;2022-12-29T00:09:07;3.55;;;2.22;;
42840;SDS011;28491;46.898;7.660;2022-12-29T00:11:33;2.40;;;1.63;;
42840;SDS011;28491;46.898;7.660;2022-12-29T00:13:58;3.72;;;2.55;;
42840;SDS011;28491;46.898;7.660;2022-12-29T00:16:43;3.95;;;2.15;;
42840;SDS011;28491;46.898;7.660;2022-12-29T00:19:10;3.60;;;1.77;;
42840;SDS011;28491;46.898;7.660;2022-12-29T00:21:55;3.47;;;1.75;;
42840;SDS011;28491;46.898;7.660;2022-12-29T00:24:39;4.45;;;1.90;;
42840;SDS011;28491;46.898;7.660;2022-12-29T00:27:23;3.08;;;2.33;;
42840;SDS011;28491;46.898;7.660;2022-12-29T00:30:12;3.20;;;1.80;;
42840;SDS011;28491;46.898;7.660;2022-12-29T00:33:08;2.47;;;1.70;;
42840;SDS011;28491;46.898;7.660;2022-12-29T00:35:57;5.05;;;2.03;;
42840;SDS011;28491;46.898;7.660;2022-12-29T00:38:26;2.75;;;1.65;;
42840;SDS011;28491;46.898;7.660;2022-12-29T00:41:11;3.92;;;2.05;;
42840;SDS011;28491;46.898;7.660;2022-12-29T00:43:55;5.35;;;2.40;;
42840;SDS011;28491;46.898;7.660;2022-12-29T00:46:30;5.45;;;2.20;;
42840;SDS011;28491;46.898;7.660;2022-12-29T00:48:59;5.05;;;1.85;;
42840;SDS011;28491;46.898;7.660;2022-12-29T00:51:44;4.15;;;2.85;;
42840;SDS011;28491;46.898;7.660;2022-12-29T00:54:11;6.38;;;2.65;;
42840;SDS011;28491;46.898;7.660;2022-12-29T00:56:37;4.68;;;2.80;;
42840;SDS011;28491;46.898;7.660;2022-12-29T00:59:03;5.82;;;3.95;;
42840;SDS011;28491;46.898;7.660;2022-12-29T01:01:31;5.20;;;3.63;;
42840;SDS011;28491;46.898;7.660;2022-12-29T01:03:57;4.32;;;2.83;;
42840;SDS011;28491;46.898;7.660;2022-12-29T01:06:22;4.45;;;2.40;;
42840;SDS011;28491;46.898;7.660;2022-12-29T01:08:48;4.82;;;2.33;;
42840;SDS011;28491;46.898;7.660;2022-12-29T01:11:37;5.78;;;2.40;;
42840;SDS011;28491;46.898;7.660;2022-12-29T01:14:03;3.35;;;1.60;;
42840;SDS011;28491;46.898;7.660;2022-12-29T01:16:29;3.33;;;2.13;;
42840;SDS011;28491;46.898;7.660;2022-12-29T01:18:55;4.50;;;3.08;;
42840;SDS011;28491;46.898;7.660;2022-12-29T01:21:20;6.43;;;2.92;;
42840;SDS011;28491;46.898;7.660;2022-12-29T01:23:46;4.30;;;2.33;;
42840;SDS011;28491;46.898;7.660;2022-12-29T01:26:12;4.20;;;1.83;;
42840;SDS011;28491;46.898;7.660;2022-12-29T01:28:40;3.15;;;2.17;;
42840;SDS011;28491;46.898;7.660;2022-12-29T01:31:07;2.63;;;1.80;;
42840;SDS011;28491;46.898;7.660;2022-12-29T01:33:33;2.80;;;1.90;;
42840;SDS011;28491;46.898;7.660;2022-12-29T01:36:02;2.88;;;1.63;;
42840;SDS011;28491;46.898;7.660;2022-12-29T01:38:29;2.63;;;1.63;;
42840;SDS011;28491;46.898;7.660;2022-12-29T01:40:55;2.13;;;1.38;;
42840;SDS011;28491;46.898;7.660;2022-12-29T01:43:20;3.35;;;1.70;;
42840;SDS011;28491;46.898;7.660;2022-12-29T01:45:50;4.88;;;2.00;;
42840;SDS011;28491;46.898;7.660;2022-12-29T01:48:18;4.57;;;1.73;;
42840;SDS011;28491;46.898;7.660;2022-12-29T01:50:46;2.38;;;1.60;;
42840;SDS011;28491;46.898;7.660;2022-12-29T01:53:25;2.53;;;1.80;;
42840;SDS011;28491;46.898;7.660;2022-12-29T01:55:56;2.53;;;1.73;;
42840;SDS011;28491;46.898;7.660;2022-12-29T01:58:27;2.95;;;1.88;;
42840;SDS011;28491;46.898;7.660;2022-12-29T02:00:55;3.47;;;2.45;;
42840;SDS011;28491;46.898;7.660;2022-12-29T02:03:21;2.38;;;1.65;;
42840;SDS011;28491;46.898;7.660;2022-12-29T02:05:52;4.38;;;1.50;;
42840;SDS011;28491;46.898;7.660;2022-12-29T02:08:23;2.38;;;1.52;;
42840;SDS011;28491;46.898;7.660;2022-12-29T02:10:51;4.05;;;2.50;;
42840;SDS011;28491;46.898;7.660;2022-12-29T02:13:17;4.55;;;1.85;;
42840;SDS011;28491;46.898;7.660;2022-12-29T02:18:25;2.90;;;2.05;;
42840;SDS011;28491;46.898;7.660;2022-12-29T02:30:01;2.03;;;1.67;;
42840;SDS011;28491;46.898;7.660;2022-12-29T02:32:30;4.35;;;1.65;;
42840;SDS011;28491;46.898;7.660;2022-12-29T02:40:24;6.55;;;2.40;;
42840;SDS011;28491;46.898;7.660;2022-12-29T02:43:07;5.28;;;2.10;;
42840;SDS011;28491;46.898;7.660;2022-12-29T02:45:47;2.90;;;1.98;;
42840;SDS011;28491;46.898;7.660;2022-12-29T02:51:02;3.10;;;2.00;;
42840;SDS011;28491;46.898;7.660;2022-12-29T02:53:32;2.60;;;1.95;;
42840;SDS011;28491;46.898;7.660;2022-12-29T02:56:18;3.65;;;2.13;;
42840;SDS011;28491;46.898;7.660;2022-12-29T02:58:44;4.78;;;2.70;;
42840;SDS011;28491;46.898;7.660;2022-12-29T03:04:40;3.80;;;2.15;;
42840;SDS011;28491;46.898;7.660;2022-12-29T03:10:02;2.35;;;1.83;;
42840;SDS011;28491;46.898;7.660;2022-12-29T03:12:46;4.68;;;2.42;;
42840;SDS011;28491;46.898;7.660;2022-12-29T03:15:43;3.65;;;2.80;;
42840;SDS011;28491;46.898;7.660;2022-12-29T03:18:34;4.50;;;2.00;;
42840;SDS011;28491;46.898;7.660;2022-12-29T03:21:09;4.18;;;2.42;;
42840;SDS011;28491;46.898;7.660;2022-12-29T03:23:38;2.92;;;1.98;;
42840;SDS011;28491;46.898;7.660;2022-12-29T03:26:09;2.90;;;1.65;;
42840;SDS011;28491;46.898;7.660;2022-12-29T03:28:42;9.48;;;1.83;;
42840;SDS011;28491;46.898;7.660;2022-12-29T03:31:12;7.00;;;2.53;;
42840;SDS011;28491;46.898;7.660;2022-12-29T03:33:40;2.25;;;1.80;;
42840;SDS011;28491;46.898;7.660;2022-12-29T03:36:09;3.85;;;2.05;;
42840;SDS011;28491;46.898;7.660;2022-12-29T03:38:41;4.15;;;2.13;;
42840;SDS011;28491;46.898;7.660;2022-12-29T03:41:12;4.32;;;2.05;;
42840;SDS011;28491;46.898;7.660;2022-12-29T03:43:41;2.83;;;1.70;;
42840;SDS011;28491;46.898;7.660;2022-12-29T03:46:06;2.65;;;1.65;;
42840;SDS011;28491;46.898;7.660;2022-12-29T03:48:32;4.82;;;2.35;;
42840;SDS011;28491;46.898;7.660;2022-12-29T03:50:57;4.40;;;1.70;;
42840;SDS011;28491;46.898;7.660;2022-12-29T03:53:23;2.53;;;1.55;;
42840;SDS011;28491;46.898;7.660;2022-12-29T03:55:49;2.97;;;1.70;;
42840;SDS011;28491;46.898;7.660;2022-12-29T03:58:15;3.13;;;1.30;;
42840;SDS011;28491;46.898;7.660;2022-12-29T04:00:41;2.83;;;1.73;;
42840;SDS011;28491;46.898;7.660;2022-12-29T04:03:06;2.75;;;1.40;;
42840;SDS011;28491;46.898;7.660;2022-12-29T04:05:31;2.83;;;1.80;;
42840;SDS011;28491;46.898;7.660;2022-12-29T04:07:57;3.42;;;1.83;;
42840;SDS011;28491;46.898;7.660;2022-12-29T04:10:22;3.72;;;1.42;;
42840;SDS011;28491;46.898;7.660;2022-12-29T04:12:48;1.73;;;1.30;;
42840;SDS011;28491;46.898;7.660;2022-12-29T04:15:13;2.88;;;1.92;;
42840;SDS011;28491;46.898;7.660;2022-12-29T04:17:39;2.20;;;1.42;;
42840;SDS011;28491;46.898;7.660;2022-12-29T04:20:05;4.53;;;1.90;;
42840;SDS011;28491;46.898;7.660;2022-12-29T04:22:49;2.50;;;1.65;;
42840;SDS011;28491;46.898;7.660;2022-12-29T04:25:21;3.17;;;1.85;;
42840;SDS011;28491;46.898;7.660;2022-12-29T04:27:47;3.38;;;2.30;;
42840;SDS011;28491;46.898;7.660;2022-12-29T04:30:12;4.18;;;2.15;;
42840;SDS011;28491;46.898;7.660;2022-12-29T04:32:38;6.68;;;2.80;;
42840;SDS011;28491;46.898;7.660;2022-12-29T04:35:04;5.05;;;2.92;;
42840;SDS011;28491;46.898;7.660;2022-12-29T04:37:29;7.82;;;4.40;;
42840;SDS011;28491;46.898;7.660;2022-12-29T04:39:55;4.82;;;2.92;;
42840;SDS011;28491;46.898;7.660;2022-12-29T04:42:20;4.75;;;3.00;;
42840;SDS011;28491;46.898;7.660;2022-12-29T04:44:46;7.30;;;2.40;;
42840;SDS011;28491;46.898;7.660;2022-12-29T04:47:11;3.90;;;2.03;;
42840;SDS011;28491;46.898;7.660;2022-12-29T04:49:37;2.45;;;1.30;;
42840;SDS011;28491;46.898;7.660;2022-12-29T04:52:02;4.28;;;2.15;;
42840;SDS011;28491;46.898;7.660;2022-12-29T04:54:29;3.40;;;2.10;;
42840;SDS011;28491;46.898;7.660;2022-12-29T04:56:54;3.65;;;2.05;;
42840;SDS011;28491;46.898;7.660;2022-12-29T04:59:20;3.88;;;2.00;;
42840;SDS011;28491;46.898;7.660;2022-12-29T05:01:45;6.80;;;2.47;;
42840;SDS011;28491;46.898;7.660;2022-12-29T05:04:11;3.45;;;2.05;;
42840;SDS011;28491;46.898;7.660;2022-12-29T05:06:36;3.72;;;2.40;;
42840;SDS011;28491;46.898;7.660;2022-12-29T05:09:02;5.10;;;2.03;;
42840;SDS011;28491;46.898;7.660;2022-12-29T05:11:27;5.50;;;2.92;;
42840;SDS011;28491;46.898;7.660;2022-12-29T05:13:53;4.38;;;2.78;;
42840;SDS011;28491;46.898;7.660;2022-12-29T05:16:18;5.20;;;3.13;;
42840;SDS011;28491;46.898;7.660;2022-12-29T05:18:44;3.78;;;2.30;;
42840;SDS011;28491;46.898;7.660;2022-12-29T05:21:09;4.80;;;2.58;;
42840;SDS011;28491;46.898;7.660;2022-12-29T05:23:35;3.90;;;2.40;;
42840;SDS011;28491;46.898;7.660;2022-12-29T05:26:00;4.50;;;2.50;;
42840;SDS011;28491;46.898;7.660;2022-12-29T05:28:26;6.00;;;2.90;;
42840;SDS011;28491;46.898;7.660;2022-12-29T05:30:51;4.72;;;2.58;;
42840;SDS011;28491;46.898;7.660;2022-12-29T05:33:17;6.60;;;2.97;;
42840;SDS011;28491;46.898;7.660;2022-12-29T05:35:43;9.05;;;2.88;;
42840;SDS011;28491;46.898;7.660;2022-12-29T05:38:10;5.57;;;2.10;;
42840;SDS011;28491;46.898;7.660;2022-12-29T05:40:35;4.65;;;2.03;;
42840;SDS011;28491;46.898;7.660;2022-12-29T05:43:01;8.45;;;3.30;;
42840;SDS011;28491;46.898;7.660;2022-12-29T05:45:26;5.15;;;3.38;;
42840;SDS011;28491;46.898;7.660;2022-12-29T05:47:52;6.90;;;3.17;;
42840;SDS011;28491;46.898;7.660;2022-12-29T05:50:17;8.32;;;3.72;;
42840;SDS011;28491;46.898;7.660;2022-12-29T05:52:43;8.52;;;4.55;;
42840;SDS011;28491;46.898;7.660;2022-12-29T05:55:08;6.85;;;3.83;;
42840;SDS011;28491;46.898;7.660;2022-12-29T05:57:34;13.85;;;6.13;;
42840;SDS011;28491;46.898;7.660;2022-12-29T06:00:00;11.50;;;6.18;;
42840;SDS011;28491;46.898;7.660;2022-12-29T06:02:26;13.52;;;7.50;;
42840;SDS011;28491;46.898;7.660;2022-12-29T06:04:51;8.00;;;4.18;;
42840;SDS011;28491;46.898;7.660;2022-12-29T06:07:17;7.28;;;3.85;;
42840;SDS011;28491;46.898;7.660;2022-12-29T06:09:42;7.57;;;3.55;;
42840;SDS011;28491;46.898;7.660;2022-12-29T06:12:08;6.13;;;2.50;;
42840;SDS011;28491;46.898;7.660;2022-12-29T06:14:33;9.38;;;6.15;;
42840;SDS011;28491;46.898;7.660;2022-12-29T06:16:59;13.38;;;5.85;;
42840;SDS011;28491;46.898;7.660;2022-12-29T06:19:25;12.68;;;6.72;;
42840;SDS011;28491;46.898;7.660;2022-12-29T06:21:50;7.70;;;4.65;;
42840;SDS011;28491;46.898;7.660;2022-12-29T06:24:17;9.20;;;5.22;;
42840;SDS011;28491;46.898;7.660;2022-12-29T06:26:43;6.32;;;3.50;;
42840;SDS011;28491;46.898;7.660;2022-12-29T06:29:08;8.20;;;3.72;;
42840;SDS011;28491;46.898;7.660;2022-12-29T06:31:34;9.43;;;4.93;;
42840;SDS011;28491;46.898;7.660;2022-12-29T06:33:59;6.05;;;3.08;;
42840;SDS011;28491;46.898;7.660;2022-12-29T06:36:25;6.97;;;3.65;;
42840;SDS011;28491;46.898;7.660;2022-12-29T06:38:50;13.25;;;6.40;;
42840;SDS011;28491;46.898;7.660;2022-12-29T06:41:17;9.55;;;4.68;;
42840;SDS011;28491;46.898;7.660;2022-12-29T06:43:44;8.00;;;5.15;;
42840;SDS011;28491;46.898;7.660;2022-12-29T06:46:09;11.13;;;5.88;;
42840;SDS011;28491;46.898;7.660;2022-12-29T06:48:35;5.85;;;3.88;;
42840;SDS011;28491;46.898;7.660;2022-12-29T06:51:00;9.02;;;4.13;;
42840;SDS011;28491;46.898;7.660;2022-12-29T06:53:26;9.27;;;2.90;;
42840;SDS011;28491;46.898;7.660;2022-12-29T06:55:51;8.18;;;2.72;;
42840;SDS011;28491;46.898;7.660;2022-12-29T06:58:17;4.57;;;2.33;;
42840;SDS011;28491;46.898;7.660;2022-12-29T07:00:42;8.20;;;2.50;;
42840;SDS011;28491;46.898;7.660;2022-12-29T07:03:08;4.57;;;2.40;;
42840;SDS011;28491;46.898;7.660;2022-12-29T07:05:33;9.07;;;3.20;;
42840;SDS011;28491;46.898;7.660;2022-12-29T07:07:59;4.45;;;2.40;;
42840;SDS011;28491;46.898;7.660;2022-12-29T07:10:25;6.43;;;2.78;;
42840;SDS011;28491;46.898;7.660;2022-12-29T07:12:50;6.30;;;3.45;;
42840;SDS011;28491;46.898;7.660;2022-12-29T07:15:16;7.65;;;3.60;;
42840;SDS011;28491;46.898;7.660;2022-12-29T07:17:41;5.35;;;3.35;;
42840;SDS011;28491;46.898;7.660;2022-12-29T07:20:07;8.32;;;4.10;;
42840;SDS011;28491;46.898;7.660;2022-12-29T07:22:34;11.75;;;5.00;;
42840;SDS011;28491;46.898;7.660;2022-12-29T07:25:00;6.07;;;3.03;;
42840;SDS011;28491;46.898;7.660;2022-12-29T07:27:25;26.50;;;10.60;;
42840;SDS011;28491;46.898;7.660;2022-12-29T07:29:51;20.00;;;9.45;;
42840;SDS011;28491;46.898;7.660;2022-12-29T07:32:16;7.82;;;5.20;;
42840;SDS011;28491;46.898;7.660;2022-12-29T07:34:42;10.82;;;6.35;;
42840;SDS011;28491;46.898;7.660;2022-12-29T07:37:10;6.22;;;4.00;;
42840;SDS011;28491;46.898;7.660;2022-12-29T07:39:35;11.57;;;4.40;;
42840;SDS011;28491;46.898;7.660;2022-12-29T07:42:01;6.07;;;3.22;;
42840;SDS011;28491;46.898;7.660;2022-12-29T07:44:26;10.05;;;5.47;;
42840;SDS011;28491;46.898;7.660;2022-12-29T07:46:52;15.35;;;8.77;;
42840;SDS011;28491;46.898;7.660;2022-12-29T07:49:17;16.10;;;6.93;;
42840;SDS011;28491;46.898;7.660;2022-12-29T07:51:43;6.57;;;3.88;;
42840;SDS011;28491;46.898;7.660;2022-12-29T07:54:08;7.20;;;4.70;;
42840;SDS011;28491;46.898;7.660;2022-12-29T07:56:34;9.43;;;4.53;;
42840;SDS011;28491;46.898;7.660;2022-12-29T07:59:00;10.45;;;5.72;;
42840;SDS011;28491;46.898;7.660;2022-12-29T08:01:25;9.80;;;5.13;;
42840;SDS011;28491;46.898;7.660;2022-12-29T08:03:51;16.70;;;7.57;;
42840;SDS011;28491;46.898;7.660;2022-12-29T08:06:16;11.88;;;6.40;;
42840;SDS011;28491;46.898;7.660;2022-12-29T08:08:43;9.20;;;5.40;;
42840;SDS011;28491;46.898;7.660;2022-12-29T08:11:08;8.90;;;4.88;;
42840;SDS011;28491;46.898;7.660;2022-12-29T08:13:34;8.13;;;3.47;;
42840;SDS011;28491;46.898;7.660;2022-12-29T08:15:59;9.45;;;4.15;;
42840;SDS011;28491;46.898;7.660;2022-12-29T08:18:25;5.80;;;4.18;;
42840;SDS011;28491;46.898;7.660;2022-12-29T08:20:50;5.65;;;3.50;;
42840;SDS011;28491;46.898;7.660;2022-12-29T08:23:16;8.57;;;3.60;;
42840;SDS011;28491;46.898;7.660;2022-12-29T08:25:42;11.05;;;5.40;;
42840;SDS011;28491;46.898;7.660;2022-12-29T08:28:07;6.75;;;3.90;;
42840;SDS011;28491;46.898;7.660;2022-12-29T08:30:35;8.52;;;6.50;;
42840;SDS011;28491;46.898;7.660;2022-12-29T08:33:01;10.68;;;6.85;;
42840;SDS011;28491;46.898;7.660;2022-12-29T08:35:26;7.70;;;4.72;;
42840;SDS011;28491;46.898;7.660;2022-12-29T08:37:52;6.57;;;4.65;;
42840;SDS011;28491;46.898;7.660;2022-12-29T08:40:17;11.32;;;6.50;;
42840;SDS011;28491;46.898;7.660;2022-12-29T08:42:43;11.35;;;5.72;;
42840;SDS011;28491;46.898;7.660;2022-12-29T08:45:09;6.25;;;4.40;;
42840;SDS011;28491;46.898;7.660;2022-12-29T08:47:34;8.45;;;5.38;;
42840;SDS011;28491;46.898;7.660;2022-12-29T08:50:00;7.78;;;3.90;;
42840;SDS011;28491;46.898;7.660;2022-12-29T08:52:26;6.88;;;4.13;;
42840;SDS011;28491;46.898;7.660;2022-12-29T08:54:51;7.45;;;3.78;;
42840;SDS011;28491;46.898;7.660;2022-12-29T08:57:18;6.65;;;3.75;;
42840;SDS011;28491;46.898;7.660;2022-12-29T08:59:43;9.80;;;4.35;;
42840;SDS011;28491;46.898;7.660;2022-12-29T09:02:12;7.15;;;4.38;;
42840;SDS011;28491;46.898;7.660;2022-12-29T09:04:37;8.57;;;5.18;;
42840;SDS011;28491;46.898;7.660;2022-12-29T09:07:03;10.30;;;6.20;;
42840;SDS011;28491;46.898;7.660;2022-12-29T09:09:30;6.95;;;4.05;;
42840;SDS011;28491;46.898;7.660;2022-12-29T09:11:56;8.18;;;4.82;;
42840;SDS011;28491;46.898;7.660;2022-12-29T09:14:21;7.60;;;4.65;;
42840;SDS011;28491;46.898;7.660;2022-12-29T09:16:47;8.73;;;4.75;;
42840;SDS011;28491;46.898;7.660;2022-12-29T09:19:31;12.77;;;4.65;;
42840;SDS011;28491;46.898;7.660;2022-12-29T09:21:56;7.97;;;4.20;;
42840;SDS011;28491;46.898;7.660;2022-12-29T09:24:22;25.60;;;7.60;;
42840;SDS011;28491;46.898;7.660;2022-12-29T09:26:47;14.55;;;8.13;;
42840;SDS011;28491;46.898;7.660;2022-12-29T09:29:13;7.07;;;4.10;;
42840;SDS011;28491;46.898;7.660;2022-12-29T09:31:38;6.90;;;4.00;;
42840;SDS011;28491;46.898;7.660;2022-12-29T09:34:04;7.97;;;4.90;;
42840;SDS011;28491;46.898;7.660;2022-12-29T09:36:29;8.73;;;4.38;;
42840;SDS011;28491;46.898;7.660;2022-12-29T09:38:55;11.57;;;6.18;;
42840;SDS011;28491;46.898;7.660;2022-12-29T09:41:22;10.23;;;5.68;;
42840;SDS011;28491;46.898;7.660;2022-12-29T09:46:28;10.32;;;5.38;;
42840;SDS011;28491;46.898;7.660;2022-12-29T09:49:13;11.63;;;6.32;;
42840;SDS011;28491;46.898;7.660;2022-12-29T09:51:42;17.48;;;8.93;;
42840;SDS011;28491;46.898;7.660;2022-12-29T09:54:23;19.67;;;11.55;;
42840;SDS011;28491;46.898;7.660;2022-12-29T09:56:55;22.00;;;12.05;;
42840;SDS011;28491;46.898;7.660;2022-12-29T09:59:22;19.40;;;11.50;;
42840;SDS011;28491;46.898;7.660;2022-12-29T10:02:34;18.98;;;9.77;;
42840;SDS011;28491;46.898;7.660;2022-12-29T10:04:53;14.35;;;8.25;;
42840;SDS011;28491;46.898;7.660;2022-12-29T10:10:01;8.48;;;5.45;;
42840;SDS011;28491;46.898;7.660;2022-12-29T10:15:52;14.82;;;8.60;;
42840;SDS011;28491;46.898;7.660;2022-12-29T10:23:43;13.77;;;8.30;;
42840;SDS011;28491;46.898;7.660;2022-12-29T10:26:23;11.05;;;6.25;;
42840;SDS011;28491;46.898;7.660;2022-12-29T10:28:54;11.13;;;5.80;;
42840;SDS011;28491;46.898;7.660;2022-12-29T10:34:06;9.32;;;6.28;;
42840;SDS011;28491;46.898;7.660;2022-12-29T10:36:48;13.35;;;6.93;;
42840;SDS011;28491;46.898;7.660;2022-12-29T10:42:14;8.85;;;5.50;;
42840;SDS011;28491;46.898;7.660;2022-12-29T10:44:46;8.82;;;4.72;;
42840;SDS011;28491;46.898;7.660;2022-12-29T10:47:14;10.95;;;6.82;;
42840;SDS011;28491;46.898;7.660;2022-12-29T10:49:44;9.20;;;6.38;;
42840;SDS011;28491;46.898;7.660;2022-12-29T10:52:11;11.02;;;5.78;;
42840;SDS011;28491;46.898;7.660;2022-12-29T10:54:39;9.73;;;5.85;;
42840;SDS011;28491;46.898;7.660;2022-12-29T10:59:48;11.20;;;4.78;;
42840;SDS011;28491;46.898;7.660;2022-12-29T11:02:26;6.13;;;2.72;;
42840;SDS011;28491;46.898;7.660;2022-12-29T11:05:06;6.20;;;2.90;;
42840;SDS011;28491;46.898;7.660;2022-12-29T11:07:47;4.43;;;2.17;;
42840;SDS011;28491;46.898;7.660;2022-12-29T11:15:26;6.45;;;2.33;;
42840;SDS011;28491;46.898;7.660;2022-12-29T11:17:52;7.40;;;3.33;;
42840;SDS011;28491;46.898;7.660;2022-12-29T11:20:32;8.65;;;3.72;;
42840;SDS011;28491;46.898;7.660;2022-12-29T11:23:05;5.75;;;3.60;;
42840;SDS011;28491;46.898;7.660;2022-12-29T11:28:42;6.63;;;2.03;;
42840;SDS011;28491;46.898;7.660;2022-12-29T11:31:15;3.65;;;2.25;;
42840;SDS011;28491;46.898;7.660;2022-12-29T11:33:42;3.22;;;1.70;;
42840;SDS011;28491;46.898;7.660;2022-12-29T11:36:19;3.20;;;2.00;;
42840;SDS011;28491;46.898;7.660;2022-12-29T11:38:53;5.78;;;3.33;;
42840;SDS011;28491;46.898;7.660;2022-12-29T11:41:29;5.28;;;3.45;;
42840;SDS011;28491;46.898;7.660;2022-12-29T11:44:00;4.47;;;2.63;;
42840;SDS011;28491;46.898;7.660;2022-12-29T11:46:29;4.75;;;2.92;;
42840;SDS011;28491;46.898;7.660;2022-12-29T11:49:00;10.90;;;3.38;;
42840;SDS011;28491;46.898;7.660;2022-12-29T11:51:28;3.25;;;2.38;;
42840;SDS011;28491;46.898;7.660;2022-12-29T11:54:09;5.68;;;3.00;;
42840;SDS011;28491;46.898;7.660;2022-12-29T11:56:52;5.80;;;3.10;;
42840;SDS011;28491;46.898;7.660;2022-12-29T12:01:54;4.00;;;1.92;;
42840;SDS011;28491;46.898;7.660;2022-12-29T12:04:23;5.43;;;2.83;;
42840;SDS011;28491;46.898;7.660;2022-12-29T12:06:59;19.55;;;10.50;;
42840;SDS011;28491;46.898;7.660;2022-12-29T12:09:53;4.90;;;2.67;;
42840;SDS011;28491;46.898;7.660;2022-12-29T12:12:44;3.05;;;1.80;;
42840;SDS011;28491;46.898;7.660;2022-12-29T12:15:19;5.90;;;2.47;;
42840;SDS011;28491;46.898;7.660;2022-12-29T12:18:03;4.30;;;2.15;;
42840;SDS011;28491;46.898;7.660;2022-12-29T12:20:36;3.50;;;2.47;;
42840;SDS011;28491;46.898;7.660;2022-12-29T12:23:24;3.25;;;1.90;;
42840;SDS011;28491;46.898;7.660;2022-12-29T12:26:08;4.20;;;2.38;;
42840;SDS011;28491;46.898;7.660;2022-12-29T12:34:13;8.80;;;2.90;;
42840;SDS011;28491;46.898;7.660;2022-12-29T12:36:52;6.68;;;2.88;;
42840;SDS011;28491;46.898;7.660;2022-12-29T12:39:27;4.75;;;1.80;;
42840;SDS011;28491;46.898;7.660;2022-12-29T12:56:15;3.45;;;2.05;;
42840;SDS011;28491;46.898;7.660;2022-12-29T12:59:04;4.20;;;1.63;;
42840;SDS011;28491;46.898;7.660;2022-12-29T13:01:47;4.53;;;2.00;;
42840;SDS011;28491;46.898;7.660;2022-12-29T13:04:32;6.57;;;3.40;;
42840;SDS011;28491;46.898;7.660;2022-12-29T13:18:46;7.25;;;2.05;;
42840;SDS011;28491;46.898;7.660;2022-12-29T13:30:30;4.47;;;1.85;;
42840;SDS011;28491;46.898;7.660;2022-12-29T13:33:15;3.25;;;2.08;;
42840;SDS011;28491;46.898;7.660;2022-12-29T13:38:22;3.10;;;2.03;;
42840;SDS011;28491;46.898;7.660;2022-12-29T13:40:59;2.80;;;2.00;;
42840;SDS011;28491;46.898;7.660;2022-12-29T13:43:28;3.38;;;1.90;;
42840;SDS011;28491;46.898;7.660;2022-12-29T13:46:05;6.43;;;3.60;;
42840;SDS011;28491;46.898;7.660;2022-12-29T13:48:35;4.60;;;1.92;;
42840;SDS011;28491;46.898;7.660;2022-12-29T13:51:06;2.67;;;1.45;;
42840;SDS011;28491;46.898;7.660;2022-12-29T13:53:54;6.35;;;3.65;;
42840;SDS011;28491;46.898;7.660;2022-12-29T13:56:38;5.28;;;2.25;;
42840;SDS011;28491;46.898;7.660;2022-12-29T13:59:21;3.13;;;1.98;;
42840;SDS011;28491;46.898;7.660;2022-12-29T14:01:53;4.68;;;1.60;;
42840;SDS011;28491;46.898;7.660;2022-12-29T14:04:29;4.60;;;1.95;;
42840;SDS011;28491;46.898;7.660;2022-12-29T14:07:19;4.15;;;1.88;;
42840;SDS011;28491;46.898;7.660;2022-12-29T14:09:47;5.22;;;1.70;;
42840;SDS011;28491;46.898;7.660;2022-12-29T14:12:19;4.93;;;1.85;;
42840;SDS011;28491;46.898;7.660;2022-12-29T14:17:39;3.58;;;1.60;;
42840;SDS011;28491;46.898;7.660;2022-12-29T14:20:06;9.73;;;2.03;;
42840;SDS011;28491;46.898;7.660;2022-12-29T14:23:15;12.70;;;5.88;;
42840;SDS011;28491;46.898;7.660;2022-12-29T14:25:55;9.07;;;4.50;;
42840;SDS011;28491;46.898;7.660;2022-12-29T14:28:51;3.92;;;2.20;;
42840;SDS011;28491;46.898;7.660;2022-12-29T14:34:14;9.45;;;5.00;;
42840;SDS011;28491;46.898;7.660;2022-12-29T14:36:37;5.57;;;3.65;;
42840;SDS011;28491;46.898;7.660;2022-12-29T14:39:03;4.88;;;2.75;;
42840;SDS011;28491;46.898;7.660;2022-12-29T14:41:35;6.57;;;3.05;;
42840;SDS011;28491;46.898;7.660;2022-12-29T14:46:42;4.53;;;1.93;;
42840;SDS011;28491;46.898;7.660;2022-12-29T14:49:21;4.53;;;1.65;;
42840;SDS011;28491;46.898;7.660;2022-12-29T14:51:53;3.47;;;1.67;;
42840;SDS011;28491;46.898;7.660;2022-12-29T14:57:01;4.33;;;2.53;;
42840;SDS011;28491;46.898;7.660;2022-12-29T14:59:29;15.00;;;6.43;;
42840;SDS011;28491;46.898;7.660;2022-12-29T15:01:57;6.65;;;3.80;;
42840;SDS011;28491;46.898;7.660;2022-12-29T15:04:30;9.65;;;4.93;;
42840;SDS011;28491;46.898;7.660;2022-12-29T15:06:57;8.00;;;4.50;;
42840;SDS011;28491;46.898;7.660;2022-12-29T15:09:34;6.63;;;3.15;;
42840;SDS011;28491;46.898;7.660;2022-12-29T15:12:12;5.65;;;3.40;;
42840;SDS011;28491;46.898;7.660;2022-12-29T15:14:52;6.00;;;2.20;;
42840;SDS011;28491;46.898;7.660;2022-12-29T15:17:29;5.68;;;3.03;;
42840;SDS011;28491;46.898;7.660;2022-12-29T15:20:00;3.72;;;2.00;;
42840;SDS011;28491;46.898;7.660;2022-12-29T15:22:42;5.82;;;3.47;;
42840;SDS011;28491;46.898;7.660;2022-12-29T15:25:14;15.35;;;10.25;;
42840;SDS011;28491;46.898;7.660;2022-12-29T15:27:42;7.83;;;2.43;;
42840;SDS011;28491;46.898;7.660;2022-12-29T15:30:13;5.80;;;3.30;;
42840;SDS011;28491;46.898;7.660;2022-12-29T15:32:40;6.30;;;2.70;;
42840;SDS011;28491;46.898;7.660;2022-12-29T15:35:29;4.63;;;2.42;;
42840;SDS011;28491;46.898;7.660;2022-12-29T15:38:12;5.53;;;3.67;;
42840;SDS011;28491;46.898;7.660;2022-12-29T15:46:11;2.75;;;2.03;;
42840;SDS011;28491;46.898;7.660;2022-12-29T15:48:37;8.60;;;4.72;;
42840;SDS011;28491;46.898;7.660;2022-12-29T15:51:05;18.52;;;12.60;;
42840;SDS011;28491;46.898;7.660;2022-12-29T15:53:51;12.15;;;7.55;;
42840;SDS011;28491;46.898;7.660;2022-12-29T15:56:17;11.20;;;6.75;;
42840;SDS011;28491;46.898;7.660;2022-12-29T15:58:47;7.10;;;4.93;;
42840;SDS011;28491;46.898;7.660;2022-12-29T16:01:33;6.05;;;3.92;;
42840;SDS011;28491;46.898;7.660;2022-12-29T16:04:01;6.60;;;2.97;;
42840;SDS011;28491;46.898;7.660;2022-12-29T16:09:01;7.05;;;2.90;;
42840;SDS011;28491;46.898;7.660;2022-12-29T16:11:38;3.90;;;2.20;;
42840;SDS011;28491;46.898;7.660;2022-12-29T16:14:09;5.78;;;3.00;;
42840;SDS011;28491;46.898;7.660;2022-12-29T16:16:40;4.15;;;2.00;;
42840;SDS011;28491;46.898;7.660;2022-12-29T16:19:28;6.28;;;2.75;;
42840;SDS011;28491;46.898;7.660;2022-12-29T16:21:58;3.83;;;2.63;;
42840;SDS011;28491;46.898;7.660;2022-12-29T16:24:26;7.10;;;3.92;;
42840;SDS011;28491;46.898;7.660;2022-12-29T16:27:02;3.58;;;2.55;;
42840;SDS011;28491;46.898;7.660;2022-12-29T16:29:39;4.47;;;2.10;;
42840;SDS011;28491;46.898;7.660;2022-12-29T16:32:22;4.20;;;2.63;;
42840;SDS011;28491;46.898;7.660;2022-12-29T16:34:51;5.05;;;3.30;;
42840;SDS011;28491;46.898;7.660;2022-12-29T16:37:34;6.53;;;2.95;;
42840;SDS011;28491;46.898;7.660;2022-12-29T16:43:03;4.00;;;2.72;;
42840;SDS011;28491;46.898;7.660;2022-12-29T16:50:38;18.73;;;12.38;;
42840;SDS011;28491;46.898;7.660;2022-12-29T16:53:06;21.52;;;10.93;;
42840;SDS011;28491;46.898;7.660;2022-12-29T16:55:47;15.15;;;9.30;;
42840;SDS011;28491;46.898;7.660;2022-12-29T16:58:26;13.27;;;7.15;;
42840;SDS011;28491;46.898;7.660;2022-12-29T17:00:56;23.45;;;12.15;;
42840;SDS011;28491;46.898;7.660;2022-12-29T17:03:25;17.20;;;9.77;;
42840;SDS011;28491;46.898;7.660;2022-12-29T17:06:05;6.95;;;4.00;;
42840;SDS011;28491;46.898;7.660;2022-12-29T17:08:42;9.38;;;3.67;;
42840;SDS011;28491;46.898;7.660;2022-12-29T17:11:17;10.73;;;7.13;;
42840;SDS011;28491;46.898;7.660;2022-12-29T17:14:05;8.45;;;4.70;;
42840;SDS011;28491;46.898;7.660;2022-12-29T17:16:41;7.53;;;3.28;;